sensor_id;sensor_type;location;lat;lon;timestamp;P1;durP1;ratioP1;P2;durP2;ratioP2
67544;SDS011;54380;47.770;11.150;2022-10-22T00:02:24;5.35;;;0.63;;
67544;SDS011;54380;47.770;11.150;2022-10-22T00:04:53;6.70;;;0.45;;
67544;SDS011;54380;47.770;11.150;2022-10-22T00:07:22;2.47;;;0.30;;
67544;SDS011;54380;47.770;11.150;2022-10-22T00:09:50;4.60;;;0.73;;
67544;SDS011;54380;47.770;11.150;2022-10-22T00:12:16;2.63;;;0.52;;
67544;SDS011;54380;47.770;11.150;2022-10-22T00:14:43;3.60;;;0.30;;
67544;SDS011;54380;47.770;11.150;2022-10-22T00:17:11;2.65;;;0.77;;
67544;SDS011;54380;47.770;11.150;2022-10-22T00:19:39;6.35;;;0.40;;
67544;SDS011;54380;47.770;11.150;2022-10-22T00:22:06;2.45;;;0.30;;
67544;SDS011;54380;47.770;11.150;2022-10-22T00:24:33;2.75;;;0.32;;
67544;SDS011;54380;47.770;11.150;2022-10-22T00:27:01;2.08;;;0.28;;
67544;SDS011;54380;47.770;11.150;2022-10-22T00:29:29;2.58;;;0.47;;
67544;SDS011;54380;47.770;11.150;2022-10-22T00:31:56;8.65;;;0.47;;
67544;SDS011;54380;47.770;11.150;2022-10-22T00:34:23;5.10;;;0.60;;
67544;SDS011;54380;47.770;11.150;2022-10-22T00:36:52;2.25;;;0.43;;
67544;SDS011;54380;47.770;11.150;2022-10-22T00:39:21;2.53;;;0.38;;
67544;SDS011;54380;47.770;11.150;2022-10-22T00:41:49;3.88;;;0.32;;
67544;SDS011;54380;47.770;11.150;2022-10-22T00:47:22;2.30;;;0.32;;
67544;SDS011;54380;47.770;11.150;2022-10-22T00:49:50;4.28;;;0.70;;
67544;SDS011;54380;47.770;11.150;2022-10-22T00:52:20;2.90;;;0.32;;
67544;SDS011;54380;47.770;11.150;2022-10-22T00:54:48;3.45;;;0.40;;
67544;SDS011;54380;47.770;11.150;2022-10-22T00:57:16;4.22;;;0.43;;
67544;SDS011;54380;47.770;11.150;2022-10-22T00:59:45;2.75;;;0.32;;
67544;SDS011;54380;47.770;11.150;2022-10-22T01:02:12;3.45;;;0.60;;
67544;SDS011;54380;47.770;11.150;2022-10-22T01:04:39;2.75;;;0.50;;
67544;SDS011;54380;47.770;11.150;2022-10-22T01:07:06;3.03;;;0.40;;
67544;SDS011;54380;47.770;11.150;2022-10-22T01:09:40;4.07;;;0.80;;
67544;SDS011;54380;47.770;11.150;2022-10-22T01:12:17;2.97;;;0.40;;
67544;SDS011;54380;47.770;11.150;2022-10-22T01:14:51;8.60;;;0.65;;
67544;SDS011;54380;47.770;11.150;2022-10-22T01:17:34;4.70;;;0.40;;
67544;SDS011;54380;47.770;11.150;2022-10-22T01:20:07;5.45;;;0.55;;
67544;SDS011;54380;47.770;11.150;2022-10-22T01:22:44;5.00;;;0.52;;
67544;SDS011;54380;47.770;11.150;2022-10-22T01:25:27;4.32;;;0.52;;
67544;SDS011;54380;47.770;11.150;2022-10-22T01:28:00;5.18;;;0.75;;
67544;SDS011;54380;47.770;11.150;2022-10-22T01:30:36;1.40;;;0.28;;
67544;SDS011;54380;47.770;11.150;2022-10-22T01:33:05;6.53;;;0.32;;
67544;SDS011;54380;47.770;11.150;2022-10-22T01:35:38;5.05;;;0.52;;
67544;SDS011;54380;47.770;11.150;2022-10-22T01:38:09;4.40;;;0.40;;
67544;SDS011;54380;47.770;11.150;2022-10-22T01:40:38;4.13;;;0.47;;
67544;SDS011;54380;47.770;11.150;2022-10-22T01:43:07;4.88;;;0.52;;
67544;SDS011;54380;47.770;11.150;2022-10-22T01:45:37;6.22;;;0.75;;
67544;SDS011;54380;47.770;11.150;2022-10-22T01:48:09;4.15;;;0.65;;
67544;SDS011;54380;47.770;11.150;2022-10-22T01:50:53;2.92;;;0.40;;
67544;SDS011;54380;47.770;11.150;2022-10-22T01:53:29;4.10;;;0.43;;
67544;SDS011;54380;47.770;11.150;2022-10-22T01:58:56;4.68;;;0.60;;
67544;SDS011;54380;47.770;11.150;2022-10-22T02:01:31;4.10;;;0.52;;
67544;SDS011;54380;47.770;11.150;2022-10-22T02:04:09;3.72;;;0.30;;
67544;SDS011;54380;47.770;11.150;2022-10-22T02:06:41;7.45;;;0.70;;
67544;SDS011;54380;47.770;11.150;2022-10-22T02:09:09;2.92;;;0.50;;
67544;SDS011;54380;47.770;11.150;2022-10-22T02:11:40;1.58;;;0.22;;
67544;SDS011;54380;47.770;11.150;2022-10-22T02:14:08;4.45;;;0.60;;
67544;SDS011;54380;47.770;11.150;2022-10-22T02:16:40;7.78;;;0.50;;
67544;SDS011;54380;47.770;11.150;2022-10-22T02:19:10;3.20;;;0.38;;
67544;SDS011;54380;47.770;11.150;2022-10-22T02:21:42;6.18;;;0.43;;
67544;SDS011;54380;47.770;11.150;2022-10-22T02:24:09;5.88;;;0.57;;
67544;SDS011;54380;47.770;11.150;2022-10-22T02:26:38;6.65;;;1.00;;
67544;SDS011;54380;47.770;11.150;2022-10-22T02:29:09;3.85;;;0.32;;
67544;SDS011;54380;47.770;11.150;2022-10-22T02:31:41;2.95;;;0.43;;
67544;SDS011;54380;47.770;11.150;2022-10-22T02:34:13;2.70;;;0.45;;
67544;SDS011;54380;47.770;11.150;2022-10-22T02:36:44;4.95;;;0.55;;
67544;SDS011;54380;47.770;11.150;2022-10-22T02:39:15;3.72;;;0.50;;
67544;SDS011;54380;47.770;11.150;2022-10-22T02:41:44;3.15;;;0.30;;
67544;SDS011;54380;47.770;11.150;2022-10-22T02:44:11;3.70;;;0.40;;
67544;SDS011;54380;47.770;11.150;2022-10-22T02:46:38;4.85;;;0.22;;
67544;SDS011;54380;47.770;11.150;2022-10-22T02:49:07;2.30;;;0.22;;
67544;SDS011;54380;47.770;11.150;2022-10-22T02:51:34;2.13;;;0.30;;
67544;SDS011;54380;47.770;11.150;2022-10-22T02:54:00;3.45;;;0.30;;
67544;SDS011;54380;47.770;11.150;2022-10-22T02:56:27;2.20;;;0.32;;
67544;SDS011;54380;47.770;11.150;2022-10-22T02:58:54;1.77;;;0.32;;
67544;SDS011;54380;47.770;11.150;2022-10-22T03:01:21;1.70;;;0.10;;
67544;SDS011;54380;47.770;11.150;2022-10-22T03:03:48;1.95;;;0.43;;
67544;SDS011;54380;47.770;11.150;2022-10-22T03:06:16;2.83;;;0.40;;
67544;SDS011;54380;47.770;11.150;2022-10-22T03:08:43;1.13;;;0.17;;
67544;SDS011;54380;47.770;11.150;2022-10-22T03:11:10;0.80;;;0.22;;
67544;SDS011;54380;47.770;11.150;2022-10-22T03:13:36;1.73;;;0.22;;
67544;SDS011;54380;47.770;11.150;2022-10-22T03:16:03;1.73;;;0.22;;
67544;SDS011;54380;47.770;11.150;2022-10-22T03:18:30;1.45;;;0.13;;
67544;SDS011;54380;47.770;11.150;2022-10-22T03:21:01;0.82;;;0.20;;
67544;SDS011;54380;47.770;11.150;2022-10-22T03:26:01;5.55;;;0.40;;
67544;SDS011;54380;47.770;11.150;2022-10-22T03:28:28;1.63;;;0.40;;
67544;SDS011;54380;47.770;11.150;2022-10-22T03:30:55;1.05;;;0.30;;
67544;SDS011;54380;47.770;11.150;2022-10-22T03:33:22;1.25;;;0.40;;
67544;SDS011;54380;47.770;11.150;2022-10-22T03:35:49;0.80;;;0.25;;
67544;SDS011;54380;47.770;11.150;2022-10-22T03:38:15;2.55;;;0.35;;
67544;SDS011;54380;47.770;11.150;2022-10-22T03:40:44;1.05;;;0.13;;
67544;SDS011;54380;47.770;11.150;2022-10-22T03:43:11;2.28;;;0.22;;
67544;SDS011;54380;47.770;11.150;2022-10-22T03:45:38;1.42;;;0.25;;
67544;SDS011;54380;47.770;11.150;2022-10-22T03:48:05;1.88;;;0.25;;
67544;SDS011;54380;47.770;11.150;2022-10-22T03:50:31;1.85;;;0.30;;
67544;SDS011;54380;47.770;11.150;2022-10-22T03:52:58;4.68;;;0.35;;
67544;SDS011;54380;47.770;11.150;2022-10-22T03:55:25;1.88;;;0.22;;
67544;SDS011;54380;47.770;11.150;2022-10-22T03:57:53;1.48;;;0.22;;
67544;SDS011;54380;47.770;11.150;2022-10-22T04:00:20;1.50;;;0.22;;
67544;SDS011;54380;47.770;11.150;2022-10-22T04:02:46;2.10;;;0.60;;
67544;SDS011;54380;47.770;11.150;2022-10-22T04:05:13;3.38;;;0.35;;
67544;SDS011;54380;47.770;11.150;2022-10-22T04:07:45;1.85;;;0.13;;
67544;SDS011;54380;47.770;11.150;2022-10-22T04:10:11;3.40;;;0.30;;
67544;SDS011;54380;47.770;11.150;2022-10-22T04:12:38;2.25;;;0.22;;
67544;SDS011;54380;47.770;11.150;2022-10-22T04:15:07;2.55;;;0.30;;
67544;SDS011;54380;47.770;11.150;2022-10-22T04:17:35;3.65;;;0.43;;
67544;SDS011;54380;47.770;11.150;2022-10-22T04:20:02;2.90;;;0.22;;
67544;SDS011;54380;47.770;11.150;2022-10-22T04:22:31;2.90;;;0.30;;
67544;SDS011;54380;47.770;11.150;2022-10-22T04:24:58;1.17;;;0.38;;
67544;SDS011;54380;47.770;11.150;2022-10-22T04:27:27;2.30;;;0.40;;
67544;SDS011;54380;47.770;11.150;2022-10-22T04:29:55;1.55;;;0.40;;
67544;SDS011;54380;47.770;11.150;2022-10-22T04:32:23;5.30;;;0.35;;
67544;SDS011;54380;47.770;11.150;2022-10-22T04:34:50;2.20;;;0.45;;
67544;SDS011;54380;47.770;11.150;2022-10-22T04:37:16;8.90;;;0.30;;
67544;SDS011;54380;47.770;11.150;2022-10-22T04:39:43;2.72;;;0.22;;
67544;SDS011;54380;47.770;11.150;2022-10-22T04:42:10;1.08;;;0.22;;
67544;SDS011;54380;47.770;11.150;2022-10-22T04:44:37;1.00;;;0.22;;
67544;SDS011;54380;47.770;11.150;2022-10-22T04:47:04;1.77;;;0.47;;
67544;SDS011;54380;47.770;11.150;2022-10-22T04:49:32;0.63;;;0.13;;
67544;SDS011;54380;47.770;11.150;2022-10-22T04:51:59;1.80;;;0.20;;
67544;SDS011;54380;47.770;11.150;2022-10-22T04:54:26;0.88;;;0.22;;
67544;SDS011;54380;47.770;11.150;2022-10-22T04:56:58;1.17;;;0.13;;
67544;SDS011;54380;47.770;11.150;2022-10-22T04:59:25;3.08;;;0.22;;
67544;SDS011;54380;47.770;11.150;2022-10-22T05:01:51;1.15;;;0.25;;
67544;SDS011;54380;47.770;11.150;2022-10-22T05:04:18;3.33;;;0.30;;
67544;SDS011;54380;47.770;11.150;2022-10-22T05:06:46;1.60;;;0.73;;
67544;SDS011;54380;47.770;11.150;2022-10-22T05:09:14;2.22;;;0.20;;
67544;SDS011;54380;47.770;11.150;2022-10-22T05:11:43;2.33;;;0.30;;
67544;SDS011;54380;47.770;11.150;2022-10-22T05:14:11;1.05;;;0.13;;
67544;SDS011;54380;47.770;11.150;2022-10-22T05:16:38;1.10;;;0.32;;
67544;SDS011;54380;47.770;11.150;2022-10-22T05:19:05;1.75;;;0.35;;
67544;SDS011;54380;47.770;11.150;2022-10-22T05:21:33;0.85;;;0.22;;
67544;SDS011;54380;47.770;11.150;2022-10-22T05:24:01;1.52;;;0.20;;
67544;SDS011;54380;47.770;11.150;2022-10-22T05:28:55;3.17;;;0.32;;
67544;SDS011;54380;47.770;11.150;2022-10-22T05:31:22;2.28;;;0.77;;
67544;SDS011;54380;47.770;11.150;2022-10-22T05:33:49;0.85;;;0.13;;
67544;SDS011;54380;47.770;11.150;2022-10-22T05:36:16;1.50;;;0.32;;
67544;SDS011;54380;47.770;11.150;2022-10-22T05:38:44;0.98;;;0.13;;
67544;SDS011;54380;47.770;11.150;2022-10-22T05:41:13;1.98;;;0.47;;
67544;SDS011;54380;47.770;11.150;2022-10-22T05:43:41;1.83;;;0.20;;
67544;SDS011;54380;47.770;11.150;2022-10-22T05:46:09;1.80;;;0.40;;
67544;SDS011;54380;47.770;11.150;2022-10-22T05:48:37;4.88;;;0.75;;
67544;SDS011;54380;47.770;11.150;2022-10-22T05:51:05;1.83;;;0.43;;
67544;SDS011;54380;47.770;11.150;2022-10-22T05:53:33;2.30;;;0.30;;
67544;SDS011;54380;47.770;11.150;2022-10-22T05:56:01;2.35;;;0.32;;
67544;SDS011;54380;47.770;11.150;2022-10-22T05:58:31;3.33;;;0.50;;
67544;SDS011;54380;47.770;11.150;2022-10-22T06:01:01;4.82;;;0.32;;
67544;SDS011;54380;47.770;11.150;2022-10-22T06:03:28;0.93;;;0.22;;
67544;SDS011;54380;47.770;11.150;2022-10-22T06:05:58;2.03;;;0.32;;
67544;SDS011;54380;47.770;11.150;2022-10-22T06:08:26;3.13;;;0.52;;
67544;SDS011;54380;47.770;11.150;2022-10-22T06:10:54;3.83;;;0.45;;
67544;SDS011;54380;47.770;11.150;2022-10-22T06:13:20;2.33;;;0.52;;
67544;SDS011;54380;47.770;11.150;2022-10-22T06:15:49;3.42;;;0.47;;
67544;SDS011;54380;47.770;11.150;2022-10-22T06:18:18;4.28;;;0.63;;
67544;SDS011;54380;47.770;11.150;2022-10-22T06:20:45;4.82;;;0.85;;
67544;SDS011;54380;47.770;11.150;2022-10-22T06:23:12;3.17;;;0.45;;
67544;SDS011;54380;47.770;11.150;2022-10-22T06:25:40;1.80;;;0.32;;
67544;SDS011;54380;47.770;11.150;2022-10-22T06:28:07;1.98;;;0.20;;
67544;SDS011;54380;47.770;11.150;2022-10-22T06:30:35;2.50;;;0.40;;
67544;SDS011;54380;47.770;11.150;2022-10-22T06:33:03;2.92;;;0.50;;
67544;SDS011;54380;47.770;11.150;2022-10-22T06:35:30;0.98;;;0.22;;
67544;SDS011;54380;47.770;11.150;2022-10-22T06:37:58;3.20;;;0.32;;
67544;SDS011;54380;47.770;11.150;2022-10-22T06:40:25;1.73;;;0.22;;
67544;SDS011;54380;47.770;11.150;2022-10-22T06:42:52;1.45;;;0.35;;
67544;SDS011;54380;47.770;11.150;2022-10-22T06:45:18;1.17;;;0.25;;
67544;SDS011;54380;47.770;11.150;2022-10-22T06:47:45;2.50;;;0.50;;
67544;SDS011;54380;47.770;11.150;2022-10-22T06:50:14;1.52;;;0.43;;
67544;SDS011;54380;47.770;11.150;2022-10-22T06:52:41;2.95;;;0.35;;
67544;SDS011;54380;47.770;11.150;2022-10-22T06:55:08;2.85;;;0.60;;
67544;SDS011;54380;47.770;11.150;2022-10-22T06:57:35;3.15;;;0.45;;
67544;SDS011;54380;47.770;11.150;2022-10-22T07:00:04;2.05;;;0.28;;
67544;SDS011;54380;47.770;11.150;2022-10-22T07:02:32;2.30;;;0.43;;
67544;SDS011;54380;47.770;11.150;2022-10-22T07:04:59;3.10;;;0.40;;
67544;SDS011;54380;47.770;11.150;2022-10-22T07:07:27;1.13;;;0.10;;
67544;SDS011;54380;47.770;11.150;2022-10-22T07:09:53;1.75;;;0.38;;
67544;SDS011;54380;47.770;11.150;2022-10-22T07:12:20;1.65;;;0.22;;
67544;SDS011;54380;47.770;11.150;2022-10-22T07:14:47;3.25;;;0.32;;
67544;SDS011;54380;47.770;11.150;2022-10-22T07:17:14;2.15;;;0.30;;
67544;SDS011;54380;47.770;11.150;2022-10-22T07:19:41;2.55;;;0.30;;
67544;SDS011;54380;47.770;11.150;2022-10-22T07:25:07;2.42;;;0.32;;
67544;SDS011;54380;47.770;11.150;2022-10-22T07:27:36;2.15;;;0.40;;
67544;SDS011;54380;47.770;11.150;2022-10-22T07:30:11;3.03;;;0.52;;
67544;SDS011;54380;47.770;11.150;2022-10-22T07:35:07;3.58;;;0.32;;
67544;SDS011;54380;47.770;11.150;2022-10-22T07:37:48;6.00;;;0.22;;
67544;SDS011;54380;47.770;11.150;2022-10-22T07:44:00;3.88;;;0.45;;
67544;SDS011;54380;47.770;11.150;2022-10-22T07:46:28;3.55;;;0.50;;
67544;SDS011;54380;47.770;11.150;2022-10-22T07:49:08;2.08;;;0.45;;
67544;SDS011;54380;47.770;11.150;2022-10-22T07:51:35;2.10;;;0.25;;
67544;SDS011;54380;47.770;11.150;2022-10-22T07:54:24;8.73;;;0.73;;
67544;SDS011;54380;47.770;11.150;2022-10-22T07:56:55;23.83;;;1.13;;
67544;SDS011;54380;47.770;11.150;2022-10-22T07:59:32;6.38;;;0.95;;
67544;SDS011;54380;47.770;11.150;2022-10-22T08:02:00;33.15;;;1.27;;
67544;SDS011;54380;47.770;11.150;2022-10-22T08:04:27;9.07;;;0.55;;
67544;SDS011;54380;47.770;11.150;2022-10-22T08:06:58;5.50;;;0.63;;
67544;SDS011;54380;47.770;11.150;2022-10-22T08:09:26;3.35;;;0.50;;
67544;SDS011;54380;47.770;11.150;2022-10-22T08:11:53;6.65;;;0.38;;
67544;SDS011;54380;47.770;11.150;2022-10-22T08:14:20;3.60;;;0.40;;
67544;SDS011;54380;47.770;11.150;2022-10-22T08:16:48;8.10;;;0.80;;
67544;SDS011;54380;47.770;11.150;2022-10-22T08:19:15;10.15;;;0.93;;
67544;SDS011;54380;47.770;11.150;2022-10-22T08:21:46;42.80;;;2.53;;
67544;SDS011;54380;47.770;11.150;2022-10-22T08:24:13;18.85;;;2.78;;
67544;SDS011;54380;47.770;11.150;2022-10-22T08:26:41;32.63;;;2.90;;
67544;SDS011;54380;47.770;11.150;2022-10-22T08:29:08;6.70;;;0.70;;
67544;SDS011;54380;47.770;11.150;2022-10-22T08:31:35;7.07;;;0.77;;
67544;SDS011;54380;47.770;11.150;2022-10-22T08:34:04;8.73;;;0.77;;
67544;SDS011;54380;47.770;11.150;2022-10-22T08:36:32;18.92;;;1.88;;
67544;SDS011;54380;47.770;11.150;2022-10-22T08:39:01;16.63;;;0.98;;
67544;SDS011;54380;47.770;11.150;2022-10-22T08:41:28;6.50;;;0.90;;
67544;SDS011;54380;47.770;11.150;2022-10-22T08:44:14;32.47;;;1.98;;
67544;SDS011;54380;47.770;11.150;2022-10-22T08:47:19;21.98;;;2.03;;
67544;SDS011;54380;47.770;11.150;2022-10-22T08:50:08;34.97;;;2.17;;
67544;SDS011;54380;47.770;11.150;2022-10-22T08:52:37;10.00;;;1.90;;
67544;SDS011;54380;47.770;11.150;2022-10-22T08:55:11;12.93;;;2.00;;
67544;SDS011;54380;47.770;11.150;2022-10-22T08:57:42;9.18;;;1.50;;
67544;SDS011;54380;47.770;11.150;2022-10-22T09:00:19;5.00;;;0.77;;
67544;SDS011;54380;47.770;11.150;2022-10-22T09:02:53;6.78;;;0.60;;
67544;SDS011;54380;47.770;11.150;2022-10-22T09:05:36;4.78;;;0.73;;
67544;SDS011;54380;47.770;11.150;2022-10-22T09:08:10;10.68;;;1.63;;
67544;SDS011;54380;47.770;11.150;2022-10-22T09:10:39;11.05;;;2.20;;
67544;SDS011;54380;47.770;11.150;2022-10-22T09:16:15;5.18;;;0.52;;
67544;SDS011;54380;47.770;11.150;2022-10-22T09:18:47;5.60;;;0.82;;
67544;SDS011;54380;47.770;11.150;2022-10-22T09:21:26;2.97;;;0.57;;
67544;SDS011;54380;47.770;11.150;2022-10-22T09:24:01;2.95;;;0.65;;
67544;SDS011;54380;47.770;11.150;2022-10-22T09:26:31;17.95;;;2.25;;
67544;SDS011;54380;47.770;11.150;2022-10-22T09:29:01;6.28;;;0.55;;
67544;SDS011;54380;47.770;11.150;2022-10-22T09:31:29;3.90;;;0.43;;
67544;SDS011;54380;47.770;11.150;2022-10-22T09:33:57;4.15;;;0.68;;
67544;SDS011;54380;47.770;11.150;2022-10-22T09:36:32;2.20;;;0.43;;
67544;SDS011;54380;47.770;11.150;2022-10-22T09:38:59;1.70;;;0.25;;
67544;SDS011;54380;47.770;11.150;2022-10-22T09:41:27;2.13;;;0.30;;
67544;SDS011;54380;47.770;11.150;2022-10-22T09:43:55;3.28;;;0.43;;
67544;SDS011;54380;47.770;11.150;2022-10-22T09:46:23;1.95;;;0.25;;
67544;SDS011;54380;47.770;11.150;2022-10-22T09:48:57;1.95;;;0.25;;
67544;SDS011;54380;47.770;11.150;2022-10-22T09:51:36;2.30;;;0.43;;
67544;SDS011;54380;47.770;11.150;2022-10-22T09:54:13;4.53;;;0.32;;
67544;SDS011;54380;47.770;11.150;2022-10-22T09:56:47;1.55;;;0.22;;
67544;SDS011;54380;47.770;11.150;2022-10-22T09:59:17;6.18;;;0.68;;
67544;SDS011;54380;47.770;11.150;2022-10-22T10:01:55;7.10;;;0.65;;
67544;SDS011;54380;47.770;11.150;2022-10-22T10:04:45;1.33;;;0.25;;
67544;SDS011;54380;47.770;11.150;2022-10-22T10:07:16;5.25;;;0.60;;
67544;SDS011;54380;47.770;11.150;2022-10-22T10:09:43;10.80;;;1.27;;
67544;SDS011;54380;47.770;11.150;2022-10-22T10:12:15;1.67;;;0.22;;
67544;SDS011;54380;47.770;11.150;2022-10-22T10:14:52;3.35;;;0.40;;
67544;SDS011;54380;47.770;11.150;2022-10-22T10:17:28;0.73;;;0.22;;
67544;SDS011;54380;47.770;11.150;2022-10-22T10:20:04;1.83;;;0.25;;
67544;SDS011;54380;47.770;11.150;2022-10-22T10:22:45;2.15;;;0.20;;
67544;SDS011;54380;47.770;11.150;2022-10-22T10:25:34;1.08;;;0.17;;
67544;SDS011;54380;47.770;11.150;2022-10-22T10:28:17;1.80;;;0.22;;
67544;SDS011;54380;47.770;11.150;2022-10-22T10:30:54;4.70;;;0.63;;
67544;SDS011;54380;47.770;11.150;2022-10-22T10:33:32;2.83;;;0.45;;
67544;SDS011;54380;47.770;11.150;2022-10-22T10:36:09;1.55;;;0.32;;
67544;SDS011;54380;47.770;11.150;2022-10-22T10:38:47;4.13;;;0.25;;
67544;SDS011;54380;47.770;11.150;2022-10-22T10:41:25;1.15;;;0.25;;
67544;SDS011;54380;47.770;11.150;2022-10-22T10:44:09;1.40;;;0.30;;
67544;SDS011;54380;47.770;11.150;2022-10-22T10:46:45;4.18;;;0.30;;
67544;SDS011;54380;47.770;11.150;2022-10-22T10:49:15;3.30;;;0.30;;
67544;SDS011;54380;47.770;11.150;2022-10-22T10:51:47;1.55;;;0.10;;
67544;SDS011;54380;47.770;11.150;2022-10-22T10:54:30;3.50;;;0.35;;
67544;SDS011;54380;47.770;11.150;2022-10-22T10:57:08;2.63;;;0.43;;
67544;SDS011;54380;47.770;11.150;2022-10-22T10:59:55;2.85;;;0.30;;
67544;SDS011;54380;47.770;11.150;2022-10-22T11:02:32;3.35;;;0.55;;
67544;SDS011;54380;47.770;11.150;2022-10-22T11:05:23;2.08;;;0.50;;
67544;SDS011;54380;47.770;11.150;2022-10-22T11:07:56;11.02;;;1.20;;
67544;SDS011;54380;47.770;11.150;2022-10-22T11:10:29;10.02;;;1.35;;
67544;SDS011;54380;47.770;11.150;2022-10-22T11:13:01;2.33;;;0.32;;
67544;SDS011;54380;47.770;11.150;2022-10-22T11:15:33;4.70;;;0.50;;
67544;SDS011;54380;47.770;11.150;2022-10-22T11:18:07;1.42;;;0.20;;
67544;SDS011;54380;47.770;11.150;2022-10-22T11:20:54;0.93;;;0.13;;
67544;SDS011;54380;47.770;11.150;2022-10-22T11:23:31;0.90;;;0.13;;
67544;SDS011;54380;47.770;11.150;2022-10-22T11:28:58;2.20;;;0.38;;
67544;SDS011;54380;47.770;11.150;2022-10-22T11:31:27;0.90;;;0.20;;
67544;SDS011;54380;47.770;11.150;2022-10-22T11:33:59;2.60;;;0.50;;
67544;SDS011;54380;47.770;11.150;2022-10-22T11:36:51;0.70;;;0.10;;
67544;SDS011;54380;47.770;11.150;2022-10-22T11:39:28;1.13;;;0.32;;
67544;SDS011;54380;47.770;11.150;2022-10-22T11:41:57;1.00;;;0.20;;
67544;SDS011;54380;47.770;11.150;2022-10-22T11:44:26;8.35;;;0.20;;
67544;SDS011;54380;47.770;11.150;2022-10-22T11:46:56;1.02;;;0.30;;
67544;SDS011;54380;47.770;11.150;2022-10-22T11:49:26;2.20;;;0.40;;
67544;SDS011;54380;47.770;11.150;2022-10-22T11:52:37;3.22;;;0.35;;
67544;SDS011;54380;47.770;11.150;2022-10-22T11:57:58;2.08;;;0.40;;
67544;SDS011;54380;47.770;11.150;2022-10-22T12:00:45;1.58;;;0.10;;
67544;SDS011;54380;47.770;11.150;2022-10-22T12:03:16;2.03;;;0.30;;
67544;SDS011;54380;47.770;11.150;2022-10-22T12:05:45;1.35;;;0.22;;
67544;SDS011;54380;47.770;11.150;2022-10-22T12:11:12;3.20;;;0.35;;
67544;SDS011;54380;47.770;11.150;2022-10-22T12:17:33;7.82;;;0.52;;
67544;SDS011;54380;47.770;11.150;2022-10-22T12:20:01;10.43;;;0.43;;
67544;SDS011;54380;47.770;11.150;2022-10-22T12:22:53;2.00;;;0.20;;
67544;SDS011;54380;47.770;11.150;2022-10-22T12:25:21;1.00;;;0.35;;
67544;SDS011;54380;47.770;11.150;2022-10-22T12:28:09;5.32;;;0.32;;
67544;SDS011;54380;47.770;11.150;2022-10-22T12:30:53;1.17;;;0.25;;
67544;SDS011;54380;47.770;11.150;2022-10-22T12:33:42;1.17;;;0.28;;
67544;SDS011;54380;47.770;11.150;2022-10-22T12:36:13;2.30;;;0.22;;
67544;SDS011;54380;47.770;11.150;2022-10-22T12:38:44;0.88;;;0.13;;
67544;SDS011;54380;47.770;11.150;2022-10-22T12:41:13;1.27;;;0.25;;
67544;SDS011;54380;47.770;11.150;2022-10-22T12:43:41;1.83;;;0.13;;
67544;SDS011;54380;47.770;11.150;2022-10-22T12:46:22;4.32;;;0.38;;
67544;SDS011;54380;47.770;11.150;2022-10-22T12:48:51;3.38;;;0.17;;
67544;SDS011;54380;47.770;11.150;2022-10-22T12:53:53;1.05;;;0.20;;
67544;SDS011;54380;47.770;11.150;2022-10-22T12:56:22;0.98;;;0.22;;
67544;SDS011;54380;47.770;11.150;2022-10-22T12:59:15;1.33;;;0.30;;
67544;SDS011;54380;47.770;11.150;2022-10-22T13:08:16;7.75;;;0.30;;
67544;SDS011;54380;47.770;11.150;2022-10-22T13:11:06;8.50;;;0.52;;
67544;SDS011;54380;47.770;11.150;2022-10-22T13:13:59;1.95;;;0.10;;
67544;SDS011;54380;47.770;11.150;2022-10-22T13:17:18;2.03;;;0.20;;
67544;SDS011;54380;47.770;11.150;2022-10-22T13:19:58;2.30;;;0.55;;
67544;SDS011;54380;47.770;11.150;2022-10-22T13:22:52;3.63;;;0.20;;
67544;SDS011;54380;47.770;11.150;2022-10-22T13:41:20;4.25;;;0.32;;
67544;SDS011;54380;47.770;11.150;2022-10-22T13:44:30;2.13;;;0.32;;
67544;SDS011;54380;47.770;11.150;2022-10-22T13:47:22;2.47;;;0.20;;
67544;SDS011;54380;47.770;11.150;2022-10-22T13:50:50;1.85;;;0.20;;
67544;SDS011;54380;47.770;11.150;2022-10-22T13:53:33;4.82;;;0.20;;
67544;SDS011;54380;47.770;11.150;2022-10-22T13:56:01;1.95;;;0.22;;
67544;SDS011;54380;47.770;11.150;2022-10-22T13:58:37;1.02;;;0.13;;
67544;SDS011;54380;47.770;11.150;2022-10-22T14:01:04;1.52;;;0.20;;
67544;SDS011;54380;47.770;11.150;2022-10-22T14:03:36;3.13;;;0.20;;
67544;SDS011;54380;47.770;11.150;2022-10-22T14:06:03;1.33;;;0.17;;
67544;SDS011;54380;47.770;11.150;2022-10-22T14:08:38;1.80;;;0.17;;
67544;SDS011;54380;47.770;11.150;2022-10-22T14:11:07;1.77;;;0.20;;
67544;SDS011;54380;47.770;11.150;2022-10-22T14:13:36;4.72;;;0.73;;
67544;SDS011;54380;47.770;11.150;2022-10-22T14:16:10;2.53;;;0.45;;
67544;SDS011;54380;47.770;11.150;2022-10-22T14:18:41;3.83;;;0.30;;
67544;SDS011;54380;47.770;11.150;2022-10-22T14:21:09;1.58;;;0.20;;
67544;SDS011;54380;47.770;11.150;2022-10-22T14:23:40;1.92;;;0.20;;
67544;SDS011;54380;47.770;11.150;2022-10-22T14:26:14;1.00;;;0.30;;
67544;SDS011;54380;47.770;11.150;2022-10-22T14:28:47;1.48;;;0.17;;
67544;SDS011;54380;47.770;11.150;2022-10-22T14:31:34;1.80;;;0.30;;
67544;SDS011;54380;47.770;11.150;2022-10-22T14:34:05;1.05;;;0.20;;
67544;SDS011;54380;47.770;11.150;2022-10-22T14:36:46;2.10;;;0.45;;
67544;SDS011;54380;47.770;11.150;2022-10-22T14:39:13;2.15;;;0.20;;
67544;SDS011;54380;47.770;11.150;2022-10-22T14:41:50;2.55;;;0.22;;
67544;SDS011;54380;47.770;11.150;2022-10-22T14:44:17;1.80;;;0.50;;
67544;SDS011;54380;47.770;11.150;2022-10-22T14:46:45;1.42;;;0.43;;
67544;SDS011;54380;47.770;11.150;2022-10-22T14:49:12;1.48;;;0.35;;
67544;SDS011;54380;47.770;11.150;2022-10-22T14:51:39;2.45;;;0.32;;
67544;SDS011;54380;47.770;11.150;2022-10-22T14:54:07;2.80;;;0.25;;
67544;SDS011;54380;47.770;11.150;2022-10-22T14:56:34;2.50;;;0.20;;
67544;SDS011;54380;47.770;11.150;2022-10-22T14:59:13;1.35;;;0.15;;
67544;SDS011;54380;47.770;11.150;2022-10-22T15:01:40;2.25;;;0.43;;
67544;SDS011;54380;47.770;11.150;2022-10-22T15:04:08;2.83;;;0.45;;
67544;SDS011;54380;47.770;11.150;2022-10-22T15:06:36;4.90;;;0.50;;
67544;SDS011;54380;47.770;11.150;2022-10-22T15:09:03;2.72;;;0.20;;
67544;SDS011;54380;47.770;11.150;2022-10-22T15:11:45;6.63;;;0.55;;
67544;SDS011;54380;47.770;11.150;2022-10-22T15:17:08;2.63;;;0.20;;
67544;SDS011;54380;47.770;11.150;2022-10-22T15:19:35;1.25;;;0.25;;
67544;SDS011;54380;47.770;11.150;2022-10-22T15:22:05;2.55;;;0.20;;
67544;SDS011;54380;47.770;11.150;2022-10-22T15:24:33;5.18;;;0.20;;
67544;SDS011;54380;47.770;11.150;2022-10-22T15:27:00;1.50;;;0.20;;
67544;SDS011;54380;47.770;11.150;2022-10-22T15:29:28;3.83;;;0.30;;
67544;SDS011;54380;47.770;11.150;2022-10-22T15:31:57;5.80;;;0.40;;
67544;SDS011;54380;47.770;11.150;2022-10-22T15:34:26;2.22;;;0.30;;
67544;SDS011;54380;47.770;11.150;2022-10-22T15:36:55;8.60;;;0.32;;
67544;SDS011;54380;47.770;11.150;2022-10-22T15:39:24;15.98;;;0.65;;
67544;SDS011;54380;47.770;11.150;2022-10-22T15:41:51;3.35;;;0.32;;
67544;SDS011;54380;47.770;11.150;2022-10-22T15:44:21;2.33;;;0.28;;
67544;SDS011;54380;47.770;11.150;2022-10-22T15:49:17;3.70;;;0.17;;
67544;SDS011;54380;47.770;11.150;2022-10-22T15:51:48;3.05;;;0.20;;
67544;SDS011;54380;47.770;11.150;2022-10-22T15:54:16;3.20;;;0.38;;
67544;SDS011;54380;47.770;11.150;2022-10-22T15:56:45;6.20;;;1.30;;
67544;SDS011;54380;47.770;11.150;2022-10-22T15:59:13;4.13;;;0.30;;
67544;SDS011;54380;47.770;11.150;2022-10-22T16:01:41;4.75;;;0.30;;
67544;SDS011;54380;47.770;11.150;2022-10-22T16:04:23;1.98;;;0.20;;
67544;SDS011;54380;47.770;11.150;2022-10-22T16:06:52;1.58;;;0.20;;